Time;durP1;ratioP1;P1;durP2;ratioP2;P2;SDS_P1;SDS_P2;PMS_P1;PMS_P2;Temp;Humidity;BMP_temperature;BMP_pressure;BME280_temperature;BME280_humidity;BME280_pressure;Samples;Min_cycle;Max_cycle;Signal;HPM_P1;HPM_P2
2022/05/21 00:01:57;;;;;;;5.37;3.08;;;;;;;21.95;37.87;98975.52;1763570;80;21478;-68
2022/05/21 00:04:23;;;;;;;4.58;2.98;;;;;;;21.99;37.89;98978.73;1775547;78;21514;-68
2022/05/21 00:06:50;;;;;;;12.50;3.72;;;;;;;21.89;38.14;98976.65;1784770;78;21564;-68
2022/05/21 00:09:18;;;;;;;12.33;3.30;;;;;;;22.00;38.16;98971.53;1803918;78;21585;-68
2022/05/21 00:11:45;;;;;;;5.15;3.67;;;;;;;22.04;38.26;98976.91;1797658;78;22156;-69
2022/05/21 00:14:12;;;;;;;7.53;3.77;;;;;;;22.15;38.09;98978.00;1780337;79;21554;-69
2022/05/21 00:16:40;;;;;;;9.58;3.02;;;;;;;22.06;38.41;98975.78;1780033;79;21572;-70
2022/05/21 00:19:06;;;;;;;9.18;3.42;;;;;;;22.07;38.74;98974.77;1786049;78;21608;-70
2022/05/21 00:21:34;;;;;;;9.85;3.80;;;;;;;22.06;38.75;98968.25;1785926;78;21465;-71
2022/05/21 00:24:01;;;;;;;10.82;3.60;;;;;;;22.08;38.80;98968.43;1787060;79;21876;-70
2022/05/21 00:26:28;;;;;;;5.78;3.52;;;;;;;21.90;39.30;98960.92;1772257;78;21424;-71
2022/05/21 00:28:55;;;;;;;7.05;3.02;;;;;;;21.96;39.31;98962.97;1786013;78;21611;-70
2022/05/21 00:31:21;;;;;;;8.60;3.30;;;;;;;21.94;39.45;98960.47;1787610;78;21517;-70
2022/05/21 00:33:49;;;;;;;9.20;3.77;;;;;;;21.95;39.34;98954.61;1783669;78;21616;-70
2022/05/21 00:36:17;;;;;;;5.75;3.20;;;;;;;21.89;39.79;98949.89;1783134;78;21812;-70
2022/05/21 00:38:44;;;;;;;;;;;;;;;21.85;39.98;98956.52;1785030;78;21569;-70
2022/05/21 00:41:13;;;;;;;4.90;3.07;;;;;;;21.91;40.11;98959.43;1785752;78;20246;-70
2022/05/21 00:43:58;;;;;;;12.30;3.83;;;;;;;21.89;40.07;98953.91;1778197;78;22001;-69
2022/05/21 00:46:29;;;;;;;3.87;3.30;;;;;;;22.00;39.96;98960.34;1784616;79;21428;-69
2022/05/21 00:49:10;;;;;;;5.80;3.05;;;;;;;21.92;40.29;98962.44;1795637;79;21823;-68
2022/05/21 00:51:49;;;;;;;4.22;3.40;;;;;;;21.90;40.42;98964.94;1781936;78;21062;-69
2022/05/21 00:54:16;;;;;;;6.58;3.25;;;;;;;21.73;40.81;98964.78;1758876;78;21536;-68
2022/05/21 00:56:47;;;;;;;8.30;3.15;;;;;;;21.78;40.84;98971.86;1801032;77;21633;-69
2022/05/21 01:02:01;;;;;;;9.10;3.50;;;;;;;21.73;41.04;98970.13;1775032;78;21838;-68
2022/05/21 01:04:29;;;;;;;5.92;3.42;;;;;;;21.72;41.19;98971.66;1786916;78;21469;-68
2022/05/21 01:06:56;;;;;;;6.92;3.27;;;;;;;21.69;41.37;98978.63;1782388;79;21893;-68
2022/05/21 01:09:23;;;;;;;10.03;3.60;;;;;;;21.65;41.47;98971.41;1780165;79;21483;-68
2022/05/21 01:11:50;;;;;;;5.70;3.02;;;;;;;21.56;41.67;98973.66;1767726;78;20931;-69
2022/05/21 01:14:17;;;;;;;3.83;3.25;;;;;;;21.60;41.76;98971.52;1779388;79;22003;-69
2022/05/21 01:16:44;;;;;;;5.37;3.47;;;;;;;21.51;41.98;98972.80;1765456;79;21495;-68
2022/05/21 01:19:11;;;;;;;8.73;3.42;;;;;;;21.54;42.01;98974.31;1781938;78;21477;-68
2022/05/21 01:21:39;;;;;;;;;;;;;;;21.52;42.04;98969.61;1761375;79;21525;-68
2022/05/21 01:24:06;;;;;;;14.47;4.12;;;;;;;21.54;42.24;98972.47;1764206;79;20513;-69
2022/05/21 01:26:34;;;;;;;9.08;3.85;;;;;;;21.36;42.27;98968.42;1766761;79;21788;-68
2022/05/21 01:29:11;;;;;;;7.15;3.70;;;;;;;21.31;42.62;98965.36;1760298;79;21501;-68
2022/05/21 01:31:38;;;;;;;9.23;3.72;;;;;;;21.30;42.72;98963.66;1748945;79;21584;-70
2022/05/21 01:34:04;;;;;;;6.75;3.67;;;;;;;21.29;42.87;98970.02;1765257;78;21563;-68
2022/05/21 01:36:31;;;;;;;4.97;3.13;;;;;;;21.16;43.42;98969.54;1768326;79;21653;-68
2022/05/21 01:38:58;;;;;;;6.78;3.75;;;;;;;21.14;43.47;98968.34;1765812;79;22093;-68
2022/05/21 01:41:25;;;;;;;8.50;3.70;;;;;;;21.12;43.60;98966.83;1766764;79;21417;-67
2022/05/21 01:46:37;;;;;;;9.23;3.40;;;;;;;21.21;43.52;98967.27;1760258;79;21363;-68
2022/05/21 01:49:04;;;;;;;6.10;4.20;;;;;;;21.14;43.68;98967.52;1761303;79;21640;-68
2022/05/21 01:51:31;;;;;;;7.80;4.15;;;;;;;21.18;43.64;98963.55;1751567;79;21962;-69
2022/05/21 01:53:57;;;;;;;8.30;4.15;;;;;;;21.25;43.60;98961.09;1768832;79;20959;-69
2022/05/21 01:56:24;;;;;;;6.22;3.90;;;;;;;21.23;43.77;98954.59;1758643;79;20972;-68
2022/05/21 01:58:52;;;;;;;;;;;;;;;21.21;43.69;98952.56;1759783;79;21536;-69
2022/05/21 02:01:18;;;;;;;7.78;4.20;;;;;;;21.33;43.62;98947.33;1762099;79;20322;-70
2022/05/21 02:03:45;;;;;;;5.17;3.77;;;;;;;21.29;43.65;98952.64;1761838;78;22228;-69
2022/05/21 02:06:12;;;;;;;6.72;3.75;;;;;;;21.30;43.73;98954.80;1771073;78;20996;-69
2022/05/21 02:08:38;;;;;;;5.75;4.22;;;;;;;21.27;43.78;98947.11;1730545;81;21500;-71
2022/05/21 02:11:05;;;;;;;7.22;4.05;;;;;;;21.25;43.73;98945.05;1748689;80;20995;-69
2022/05/21 02:13:34;;;;;;;6.72;3.72;;;;;;;21.24;43.80;98946.06;1769428;79;21592;-68
2022/05/21 02:16:01;;;;;;;12.43;4.03;;;;;;;21.32;43.47;98947.00;1780396;78;21824;-69
2022/05/21 02:18:28;;;;;;;7.70;3.93;;;;;;;21.32;43.52;98948.34;1754329;80;21025;-69
2022/05/21 02:20:54;;;;;;;6.60;3.90;;;;;;;21.33;43.50;98954.52;1771482;78;21534;-66
2022/05/21 02:23:22;;;;;;;13.08;4.20;;;;;;;21.29;43.71;98948.63;1765130;79;21620;-68
2022/05/21 02:25:48;;;;;;;6.42;4.12;;;;;;;21.25;43.84;98953.94;1758950;79;20980;-69
2022/05/21 02:28:15;;;;;;;8.10;3.83;;;;;;;21.33;43.64;98947.83;1766758;79;21601;-68
2022/05/21 02:30:43;;;;;;;6.17;4.05;;;;;;;20.79;44.54;98950.38;1756518;79;21544;-68
2022/05/21 02:33:11;;;;;;;5.97;3.87;;;;;;;20.37;45.99;98951.63;1759057;80;21510;-68
2022/05/21 02:35:38;;;;;;;4.05;3.62;;;;;;;20.33;46.43;98950.25;1759740;79;21443;-68
2022/05/21 02:40:51;;;;;;;7.65;3.95;;;;;;;20.34;46.69;98946.61;1771864;79;21993;-69
2022/05/21 02:43:19;;;;;;;9.48;4.17;;;;;;;20.58;46.30;98944.73;1764929;79;21573;-69
2022/05/21 02:45:46;;;;;;;5.67;4.17;;;;;;;19.96;47.33;98951.02;1764360;79;20953;-69
2022/05/21 02:48:13;;;;;;;8.50;4.28;;;;;;;19.77;48.15;98951.05;1774451;79;21520;-69
2022/05/21 02:50:39;;;;;;;7.25;3.67;;;;;;;19.89;48.17;98962.39;1762251;80;20940;-68
2022/05/21 02:53:10;;;;;;;6.55;4.10;;;;;;;20.01;48.12;98959.94;1770998;79;21699;-68
2022/05/21 02:55:38;;;;;;;7.72;4.40;;;;;;;20.18;47.69;98952.53;1774864;79;21496;-69
2022/05/21 02:58:05;;;;;;;9.95;4.25;;;;;;;20.26;47.59;98945.13;1761077;79;21486;-69
2022/05/21 03:00:32;;;;;;;14.87;3.92;;;;;;;20.30;47.57;98941.69;1773782;79;21434;-69
2022/05/21 03:02:59;;;;;;;7.08;4.15;;;;;;;20.47;47.37;98946.26;1764721;79;21420;-70
2022/05/21 03:05:27;;;;;;;4.78;3.85;;;;;;;20.59;47.09;98949.11;1765375;79;21967;-69
2022/05/21 03:07:54;;;;;;;11.18;4.22;;;;;;;20.62;47.15;98945.33;1756037;79;21621;-69
2022/05/21 03:10:23;;;;;;;5.25;4.35;;;;;;;20.61;47.25;98945.83;1771956;79;21581;-69
2022/05/21 03:12:57;;;;;;;9.13;3.90;;;;;;;20.55;47.57;98941.05;1762011;79;20946;-68
2022/05/21 03:15:32;;;;;;;8.15;3.62;;;;;;;20.57;47.78;98934.23;1760992;79;21549;-68
2022/05/21 03:18:03;;;;;;;5.10;3.85;;;;;;;20.65;48.00;98935.69;1758509;79;22235;-69
2022/05/21 03:20:30;;;;;;;7.47;4.17;;;;;;;20.64;48.02;98926.48;1771220;78;21616;-69
2022/05/21 03:22:56;;;;;;;9.00;4.42;;;;;;;20.83;47.60;98921.05;1807309;77;21070;-70
2022/05/21 03:25:23;;;;;;;10.80;3.98;;;;;;;20.55;48.23;98917.02;1798338;77;21503;-69
2022/05/21 03:27:51;;;;;;;7.50;3.95;;;;;;;20.68;48.12;98919.86;1807336;78;21436;-69
2022/05/21 03:30:22;;;;;;;7.30;4.03;;;;;;;20.74;47.95;98913.44;1809130;77;22197;-69
2022/05/21 03:32:50;;;;;;;9.28;4.55;;;;;;;20.23;49.07;98918.75;1807045;77;21551;-70
2022/05/21 03:35:17;;;;;;;5.75;3.60;;;;;;;20.57;48.97;98924.38;1808821;77;21468;-70
2022/05/21 03:37:45;;;;;;;12.05;4.20;;;;;;;20.48;48.85;98915.91;1804059;77;21472;-69
2022/05/21 03:40:15;;;;;;;9.70;4.12;;;;;;;20.66;48.67;98916.50;1805574;77;20990;-67
2022/05/21 03:42:43;;;;;;;7.92;4.20;;;;;;;20.56;48.99;98920.02;1807233;77;21740;-69
2022/05/21 03:45:10;;;;;;;6.62;4.15;;;;;;;20.81;48.46;98911.00;1777936;78;21525;-70
2022/05/21 03:47:41;;;;;;;16.20;4.37;;;;;;;20.91;48.23;98906.46;1805250;77;21483;-69
2022/05/21 03:50:08;;;;;;;8.83;4.25;;;;;;;21.07;48.07;98903.62;1806868;77;21519;-71
2022/05/21 03:52:35;;;;;;;5.75;3.50;;;;;;;20.97;48.34;98913.04;1807045;77;21421;-71
2022/05/21 03:55:04;;;;;;;5.40;4.17;;;;;;;21.12;48.44;98905.35;1808249;78;21788;-71
2022/05/21 03:57:31;;;;;;;9.90;4.00;;;;;;;21.30;48.43;98895.98;1810614;77;21497;-70
2022/05/21 03:59:58;;;;;;;5.55;3.42;;;;;;;21.46;48.17;98888.67;1807315;77;22372;-71
2022/05/21 04:02:25;;;;;;;7.10;3.90;;;;;;;21.49;48.03;98887.87;1806057;77;21498;-72
2022/05/21 04:04:53;;;;;;;11.03;4.33;;;;;;;21.08;49.18;98891.92;1805448;77;21831;-71
2022/05/21 04:07:20;;;;;;;8.63;3.70;;;;;;;21.18;49.12;98882.02;1806737;77;21776;-71
2022/05/21 04:09:50;;;;;;;11.00;4.15;;;;;;;21.39;49.04;98871.02;1803283;77;21519;-71
2022/05/21 04:12:18;;;;;;;6.33;4.33;;;;;;;21.15;49.31;98875.16;1799756;77;21429;-71
2022/05/21 04:14:45;;;;;;;9.93;4.47;;;;;;;21.23;49.48;98881.55;1801315;79;21535;-70
2022/05/21 04:17:13;;;;;;;7.65;4.30;;;;;;;21.36;49.25;98897.58;1773226;78;20997;-71
2022/05/21 04:19:41;;;;;;;12.15;4.80;;;;;;;21.65;48.61;98880.46;1780980;78;21664;-70
2022/05/21 04:22:09;;;;;;;10.43;4.08;;;;;;;21.85;48.54;98887.81;1784311;78;21516;-71
2022/05/21 04:24:38;;;;;;;6.92;3.98;;;;;;;21.96;48.17;98880.87;1788268;79;20941;-72
2022/05/21 04:27:07;;;;;;;8.13;3.75;;;;;;;22.21;47.98;98884.17;1783663;79;21563;-71
2022/05/21 04:29:35;;;;;;;7.10;3.87;;;;;;;22.39;47.66;98876.11;1789062;79;21040;-71
2022/05/21 04:32:03;;;;;;;4.22;3.60;;;;;;;22.54;47.17;98878.01;1783379;79;21525;-72
2022/05/21 04:34:30;;;;;;;9.40;4.10;;;;;;;22.61;46.80;98882.23;1781798;79;21406;-71
2022/05/21 04:36:56;;;;;;;10.20;4.00;;;;;;;22.65;46.61;98877.39;1778640;79;21524;-72
2022/05/21 04:39:23;;;;;;;7.67;4.12;;;;;;;22.73;46.39;98874.73;1782631;79;21670;-71
2022/05/21 04:41:50;;;;;;;4.63;4.07;;;;;;;22.82;46.50;98879.13;1785260;79;21576;-71
2022/05/21 04:44:17;;;;;;;7.65;3.90;;;;;;;22.97;46.40;98877.16;1785485;79;21560;-72
2022/05/21 04:46:43;;;;;;;10.43;4.20;;;;;;;23.02;46.24;98877.01;1789006;79;21540;-71
2022/05/21 04:49:10;;;;;;;9.73;4.22;;;;;;;23.09;46.02;98875.87;1781841;78;21497;-69
2022/05/21 04:51:38;;;;;;;9.07;4.20;;;;;;;23.16;45.81;98868.02;1782592;78;21430;-71
2022/05/21 04:54:05;;;;;;;6.65;4.40;;;;;;;22.54;47.17;98877.18;1770912;80;21665;-71
2022/05/21 04:56:33;;;;;;;6.17;4.10;;;;;;;22.54;47.37;98861.11;1786514;78;25753;-70
2022/05/21 04:59:01;;;;;;;6.22;3.80;;;;;;;22.61;47.52;98849.26;1802213;78;21519;-70
2022/05/21 05:01:30;;;;;;;6.30;4.28;;;;;;;22.68;47.44;98839.58;1801738;78;21483;-71
2022/05/21 05:03:57;;;;;;;6.85;4.08;;;;;;;22.80;47.38;98836.91;1784358;78;21010;-73
2022/05/21 05:06:24;;;;;;;14.55;5.40;;;;;;;22.86;47.21;98834.91;1782754;78;21505;-71
2022/05/21 05:08:52;;;;;;;9.68;4.00;;;;;;;23.01;47.37;98829.75;1755811;79;21898;-71
2022/05/21 05:11:18;;;;;;;5.30;4.03;;;;;;;23.23;47.07;98840.38;1788292;79;21472;-72
2022/05/21 05:13:45;;;;;;;5.03;4.00;;;;;;;23.29;46.87;98836.19;1791226;79;21604;-70
2022/05/21 05:16:12;;;;;;;5.90;3.90;;;;;;;23.37;46.63;98824.11;1790603;79;21486;-70
2022/05/21 05:18:39;;;;;;;10.03;4.03;;;;;;;23.41;46.46;98829.47;1786862;79;21525;-69
2022/05/21 05:21:07;;;;;;;9.85;3.95;;;;;;;23.46;46.30;98820.94;1791247;79;21573;-70
2022/05/21 05:23:34;;;;;;;4.83;4.08;;;;;;;23.47;46.25;98818.56;1779859;79;21528;-70
2022/05/21 05:26:01;;;;;;;13.78;4.22;;;;;;;23.58;46.29;98820.08;1781360;79;21512;-71
2022/05/21 05:28:28;;;;;;;5.28;4.35;;;;;;;23.80;46.02;98819.41;1784574;79;21013;-69
2022/05/21 05:30:55;;;;;;;6.40;4.35;;;;;;;24.13;45.62;98825.20;1778172;79;27405;-71
2022/05/21 05:33:23;;;;;;;8.15;4.08;;;;;;;24.09;45.29;98804.56;1785147;79;21774;-63
2022/05/21 05:35:52;;;;;;;4.90;3.85;;;;;;;24.19;45.18;98808.41;1786416;79;21601;-64
2022/05/21 05:38:19;;;;;;;8.00;4.00;;;;;;;24.21;45.31;98810.42;1786184;79;21514;-62
2022/05/21 05:40:47;;;;;;;7.80;4.40;;;;;;;24.26;45.18;98814.74;1789244;79;21600;-68
2022/05/21 05:43:15;;;;;;;11.15;3.90;;;;;;;24.22;45.42;98821.48;1789306;79;21502;-63
2022/05/21 05:45:42;;;;;;;7.10;4.35;;;;;;;24.36;45.59;98816.73;1756144;80;21808;-67
2022/05/21 05:48:10;;;;;;;8.38;3.83;;;;;;;24.40;45.07;98815.37;1786342;79;21038;-66
2022/05/21 05:50:37;;;;;;;10.40;4.20;;;;;;;24.42;44.57;98812.52;1779359;79;21419;-64
2022/05/21 05:53:05;;;;;;;7.67;3.53;;;;;;;24.52;44.21;98810.98;1783097;79;21532;-64
2022/05/21 05:55:33;;;;;;;9.43;4.35;;;;;;;24.58;44.30;98804.89;1787995;79;21609;-69
2022/05/21 05:58:00;;;;;;;6.10;3.77;;;;;;;24.54;44.69;98799.03;1782393;79;21513;-68
2022/05/21 06:00:29;;;;;;;5.20;3.90;;;;;;;24.61;44.56;98801.35;1788261;79;20925;-66
2022/05/21 06:02:59;;;;;;;14.85;4.03;;;;;;;24.62;44.43;98799.02;1789190;79;21552;-65
2022/05/21 06:05:32;;;;;;;9.38;3.75;;;;;;;24.59;44.32;98797.18;1775369;79;21485;-66
2022/05/21 06:08:02;;;;;;;7.35;3.85;;;;;;;24.63;44.63;98794.47;1789481;79;21430;-70
2022/05/21 06:10:32;;;;;;;8.10;4.10;;;;;;;24.67;44.28;98790.41;1788544;79;22175;-74
2022/05/21 06:12:59;;;;;;;4.67;3.67;;;;;;;25.00;43.71;98782.14;1788022;79;21568;-74
2022/05/21 06:15:26;;;;;;;8.30;4.03;;;;;;;24.83;44.17;98782.25;1789023;79;21497;-69
2022/05/21 06:17:53;;;;;;;9.70;3.62;;;;;;;24.85;44.30;98783.42;1784702;79;21565;-72
2022/05/21 06:20:24;;;;;;;5.85;3.77;;;;;;;24.84;44.09;98789.80;1779846;79;21584;-66
2022/05/21 06:22:53;;;;;;;10.88;3.70;;;;;;;24.96;43.96;98780.80;1785697;78;21800;-66
2022/05/21 06:25:23;;;;;;;6.65;3.67;;;;;;;25.02;43.84;98774.73;1785032;78;21561;-64
2022/05/21 06:28:12;;;;;;;13.05;3.87;;;;;;;25.22;43.53;98781.30;1787782;78;21034;-67
2022/05/21 06:30:40;;;;;;;6.30;3.60;;;;;;;25.33;43.03;98770.62;1696018;83;21490;-62
2022/05/21 06:36:13;;;;;;;10.23;4.15;;;;;;;24.79;46.38;98768.84;1785454;78;23548;-63
2022/05/21 06:38:42;;;;;;;;;;;;;;;25.69;42.78;98771.28;1767846;78;21631;-63
2022/05/21 06:41:10;;;;;;;10.82;3.72;;;;;;;25.59;43.17;98776.11;1761356;78;20134;-62
2022/05/21 06:43:39;;;;;;;6.60;3.87;;;;;;;25.56;43.40;98773.29;1767617;80;21506;-62
2022/05/21 06:46:07;;;;;;;10.15;3.90;;;;;;;25.57;43.50;98770.91;1763624;79;21485;-60
2022/05/21 06:48:35;;;;;;;16.42;4.15;;;;;;;25.69;43.10;98771.28;1772621;79;21466;-62
2022/05/21 06:51:05;;;;;;;6.87;3.90;;;;;;;25.66;43.34;98769.50;1740225;81;21486;-61
2022/05/21 06:53:34;;;;;;;8.20;4.53;;;;;;;25.65;42.56;98760.56;1727804;81;21461;-61
2022/05/21 06:56:08;;;;;;;4.47;3.52;;;;;;;25.71;42.71;98766.58;1719505;81;21562;-61
2022/05/21 06:58:36;;;;;;;6.75;3.75;;;;;;;25.58;42.83;98763.17;1736170;81;21549;-60
2022/05/21 07:01:02;;;;;;;13.03;3.70;;;;;;;25.64;43.07;98762.42;1714801;82;21527;-61
2022/05/21 07:03:29;;;;;;;12.88;4.55;;;;;;;25.68;42.67;98763.42;1708906;83;21606;-61
2022/05/21 07:08:41;;;;;;;7.85;3.83;;;;;;;25.82;41.65;98754.00;1710927;83;21417;-62
2022/05/21 07:11:08;;;;;;;4.22;3.83;;;;;;;25.82;41.65;98754.00;1713010;83;21510;-60
2022/05/21 07:13:35;;;;;;;9.88;4.62;;;;;;;25.77;42.11;98746.16;1711560;83;21458;-61
2022/05/21 07:16:03;;;;;;;7.80;3.80;;;;;;;25.73;42.20;98746.18;1716187;83;21431;-61
2022/05/21 07:18:30;;;;;;;6.62;4.35;;;;;;;25.81;42.11;98749.63;1709254;82;21797;-60
2022/05/21 07:20:57;;;;;;;11.45;4.10;;;;;;;25.88;42.35;98752.43;1707259;83;20958;-61
2022/05/21 07:23:26;;;;;;;7.87;4.05;;;;;;;26.21;42.28;98745.31;1716652;83;21459;-60
2022/05/21 07:25:53;;;;;;;10.40;4.03;;;;;;;26.42;41.90;98745.88;1714767;83;21014;-62
2022/05/21 07:28:20;;;;;;;11.73;4.53;;;;;;;26.54;41.30;98737.63;1706838;83;21622;-65
2022/05/21 07:30:47;;;;;;;8.40;3.87;;;;;;;26.21;41.86;98735.89;1712583;83;21474;-63
2022/05/21 07:33:19;;;;;;;6.25;3.65;;;;;;;26.22;41.90;98727.63;1716635;83;21655;-62
2022/05/21 07:35:45;;;;;;;7.85;3.62;;;;;;;26.57;40.91;98716.19;1700647;83;21593;-62
2022/05/21 07:38:14;;;;;;;8.00;3.52;;;;;;;26.65;39.88;98708.00;1756450;80;21483;-63
2022/05/21 07:40:41;;;;;;;6.95;4.05;;;;;;;26.74;40.35;98711.41;1743843;80;21463;-60
2022/05/21 07:43:17;;;;;;;6.20;3.60;;;;;;;26.75;40.09;98711.23;1725918;82;22151;-61
2022/05/21 07:45:44;;;;;;;10.32;3.40;;;;;;;26.82;40.40;98701.84;1755836;80;21545;-61
2022/05/21 07:48:13;;;;;;;8.28;4.33;;;;;;;26.82;40.40;98701.84;1755427;80;21478;-62
2022/05/21 07:50:43;;;;;;;6.17;3.72;;;;;;;26.89;40.80;98691.13;1754533;80;21432;-62
2022/05/21 07:53:16;;;;;;;8.75;4.25;;;;;;;26.88;40.46;98689.44;1760104;80;21541;-61
2022/05/21 07:55:47;;;;;;;5.90;3.27;;;;;;;27.12;39.63;98679.58;1757090;80;22016;-62
2022/05/21 07:58:15;;;;;;;8.53;3.80;;;;;;;27.32;39.16;98677.59;1755787;80;21598;-62
2022/05/21 08:00:42;;;;;;;8.53;3.65;;;;;;;27.32;39.16;98677.59;1754641;79;20992;-61
2022/05/21 08:03:09;;;;;;;8.20;4.10;;;;;;;27.42;39.00;98669.14;1756752;79;21479;-62
2022/05/21 08:05:38;;;;;;;9.58;3.72;;;;;;;27.51;38.97;98666.08;1752787;80;21598;-61
2022/05/21 08:08:07;;;;;;;9.80;3.50;;;;;;;27.75;38.94;98662.06;1758107;80;21875;-62
2022/05/21 08:10:37;;;;;;;6.90;3.45;;;;;;;27.90;38.63;98654.38;1762756;80;21459;-63
2022/05/21 08:13:05;;;;;;;12.43;4.33;;;;;;;28.11;38.40;98665.56;1762198;80;21691;-61
2022/05/21 08:15:33;;;;;;;12.65;4.00;;;;;;;28.35;37.67;98665.53;1762109;80;21524;-63
2022/05/21 08:18:01;;;;;;;8.65;4.55;;;;;;;28.35;37.67;98665.53;1764113;80;20986;-62
2022/05/21 08:20:28;;;;;;;;;;;;;;;28.51;37.69;98662.95;1766401;80;21909;-62
2022/05/21 08:28:28;;;;;;;7.22;3.80;;;;;;;28.03;37.64;98663.88;1737412;80;21533;-61
2022/05/21 08:30:55;;;;;;;16.48;4.47;;;;;;;28.03;37.64;98663.88;1748321;80;21077;-60
2022/05/21 08:33:24;;;;;;;6.00;3.83;;;;;;;28.12;37.36;98664.02;1758371;80;21689;-60
2022/05/21 08:35:51;;;;;;;10.60;4.33;;;;;;;28.12;37.36;98664.02;1755419;80;21432;-60
2022/05/21 08:38:18;;;;;;;6.43;3.80;;;;;;;28.19;37.55;98652.39;1756584;80;20979;-60
2022/05/21 08:41:03;;;;;;;17.42;5.50;;;;;;;28.29;37.65;98648.77;1746842;80;21540;-61
2022/05/21 08:44:04;;;;;;;60.33;14.00;;;;;;;28.40;37.09;98656.80;1750044;80;21417;-61
2022/05/21 08:46:52;;;;;;;15.50;5.00;;;;;;;28.43;36.80;98653.70;1741346;80;21945;-61
2022/05/21 08:49:50;;;;;;;14.28;4.03;;;;;;;28.63;35.94;98645.63;1719659;82;21538;-61
2022/05/21 08:52:37;;;;;;;8.53;3.80;;;;;;;28.49;36.51;98650.17;1694683;84;20995;-61
2022/05/21 08:55:06;;;;;;;10.85;3.33;;;;;;;28.57;36.66;98639.70;1697932;84;21144;-60
2022/05/21 08:57:45;;;;;;;18.12;3.40;;;;;;;28.59;36.57;98637.63;1761812;79;21415;-68
2022/05/21 09:00:17;;;;;;;;;;;;;;;28.66;36.26;98625.77;1745814;80;21823;-66
2022/05/21 09:02:44;;;;;;;7.87;3.60;;;;;;;28.68;36.39;98612.88;1757049;80;20457;-61
2022/05/21 09:05:14;;;;;;;10.03;3.23;;;;;;;28.55;36.30;98615.58;1764060;80;21497;-61
2022/05/21 09:07:58;;;;;;;9.53;3.83;;;;;;;28.61;36.39;98619.32;1764195;80;21473;-61
2022/05/21 09:10:51;;;;;;;17.82;5.12;;;;;;;28.60;35.89;98613.09;1753515;80;21431;-62
2022/05/21 09:13:30;;;;;;;12.30;5.25;;;;;;;28.61;35.88;98613.38;1757457;79;21479;-63
2022/05/21 09:18:44;;;;;;;4.62;3.20;;;;;;;28.60;36.28;98617.67;1751446;80;21408;-63
2022/05/21 09:21:16;;;;;;;14.87;3.50;;;;;;;28.53;36.04;98623.06;1709518;82;21473;-63
2022/05/21 09:23:52;;;;;;;11.73;3.80;;;;;;;28.65;36.27;98620.56;1743720;80;20931;-59
2022/05/21 09:26:25;;;;;;;5.30;3.10;;;;;;;28.60;36.41;98627.96;1755161;80;21807;-64
2022/05/21 09:28:52;;;;;;;7.03;3.30;;;;;;;28.49;36.17;98629.89;1738466;80;21543;-62
2022/05/21 09:31:31;;;;;;;15.45;3.58;;;;;;;28.45;36.33;98654.33;1763619;80;21436;-60
2022/05/21 09:34:16;;;;;;;12.68;3.15;;;;;;;28.28;37.85;98684.42;1754440;80;21586;-62
2022/05/21 09:36:44;;;;;;;9.03;3.50;;;;;;;27.65;41.69;98691.30;1692120;83;20955;-61
2022/05/21 09:39:10;;;;;;;6.83;3.92;;;;;;;27.02;44.09;98712.81;1760556;80;21569;-68
2022/05/21 09:41:37;;;;;;;4.60;3.42;;;;;;;26.28;46.73;98723.86;1758578;79;21400;-66
2022/05/21 09:47:14;;;;;;;5.55;3.50;;;;;;;25.37;50.06;98722.67;1762719;80;21523;-65
2022/05/21 09:49:42;;;;;;;8.08;3.77;;;;;;;24.90;52.43;98711.11;1755178;80;21457;-64
2022/05/21 09:52:21;;;;;;;;;;;;;;;24.69;54.08;98706.41;1733837;80;21887;-62
2022/05/21 09:54:47;;;;;;;7.17;4.10;;;;;;;24.54;55.10;98704.16;1747241;79;20168;-68
2022/05/21 09:57:37;;;;;;;6.90;4.72;;;;;;;24.36;55.37;98709.80;1752412;80;21022;-67
2022/05/21 10:00:18;;;;;;;6.30;4.58;;;;;;;24.18;56.38;98716.25;1761145;79;21689;-60
2022/05/21 10:02:49;;;;;;;10.63;4.40;;;;;;;24.18;56.38;98716.25;1755293;79;21436;-59
2022/05/21 10:05:26;;;;;;;4.33;3.67;;;;;;;24.13;57.60;98703.02;1762403;80;21760;-60
2022/05/21 10:11:03;;;;;;;9.33;3.77;;;;;;;23.94;58.47;98695.75;1749224;80;21575;-62
2022/05/21 10:13:54;;;;;;;8.50;3.67;;;;;;;23.89;58.97;98690.89;1759606;80;21479;-62
2022/05/21 10:16:45;;;;;;;6.87;4.20;;;;;;;23.87;59.73;98686.72;1750695;80;21429;-62
2022/05/21 10:19:33;;;;;;;8.25;3.95;;;;;;;23.98;59.85;98693.52;1760018;80;21820;-63
2022/05/21 10:22:23;;;;;;;6.22;4.42;;;;;;;24.08;59.44;98693.65;1759708;80;21003;-62
2022/05/21 10:25:02;;;;;;;13.80;5.20;;;;;;;23.98;59.17;98654.12;1757409;80;21480;-62
2022/05/21 10:28:16;;;;;;;5.22;4.72;;;;;;;24.17;58.88;98630.53;1744499;80;21514;-62
2022/05/21 10:31:09;;;;;;;8.78;4.78;;;;;;;23.93;60.63;98615.39;1744164;80;21586;-63
2022/05/21 10:33:59;;;;;;;8.00;6.42;;;;;;;24.32;59.73;98608.59;1756653;80;21919;-64
2022/05/21 10:36:43;;;;;;;6.17;5.58;;;;;;;24.37;59.88;98614.24;1754402;80;21518;-63
2022/05/21 10:39:21;;;;;;;12.33;5.33;;;;;;;24.55;59.48;98605.92;1763482;80;21039;-64
2022/05/21 10:42:06;;;;;;;6.35;3.98;;;;;;;24.63;59.15;98599.13;1756837;80;21437;-65
2022/05/21 10:45:09;;;;;;;6.33;4.12;;;;;;;24.31;60.13;98588.11;1753862;80;21435;-65
2022/05/21 10:47:58;;;;;;;5.28;4.25;;;;;;;24.25;60.38;98600.41;1757637;80;21907;-63
2022/05/21 10:51:03;;;;;;;3.83;3.40;;;;;;;24.35;60.21;98615.45;1753360;80;21574;-64
2022/05/21 10:54:00;;;;;;;8.65;4.55;;;;;;;24.19;60.42;98602.47;1744227;80;21573;-64
2022/05/21 10:56:53;;;;;;;6.05;5.05;;;;;;;24.13;60.65;98603.67;1754782;80;21538;-63
2022/05/21 10:59:45;;;;;;;6.42;4.35;;;;;;;24.12;60.48;98589.42;1755052;80;20990;-63
2022/05/21 11:02:39;;;;;;;9.35;4.35;;;;;;;24.16;60.78;98569.77;1756953;80;21917;-65
2022/05/21 11:05:49;;;;;;;8.70;4.90;;;;;;;24.25;60.66;98565.48;1752390;80;21502;-65
2022/05/21 11:08:41;;;;;;;15.78;5.65;;;;;;;24.38;60.83;98546.61;1710338;82;21625;-62
2022/05/21 11:11:25;;;;;;;8.43;7.47;;;;;;;24.63;60.90;98542.69;1705177;82;22084;-64
2022/05/21 11:14:17;;;;;;;7.05;6.03;;;;;;;24.85;60.43;98550.38;1741803;80;20920;-63
2022/05/21 11:17:00;;;;;;;8.90;5.60;;;;;;;24.95;60.75;98551.96;1758010;80;22002;-63
2022/05/21 11:19:39;;;;;;;6.28;4.67;;;;;;;25.16;60.36;98545.32;1759481;80;21485;-63
2022/05/21 11:22:08;;;;;;;8.03;4.22;;;;;;;25.24;60.20;98545.28;1763963;80;21594;-62
2022/05/21 11:25:15;;;;;;;5.33;3.85;;;;;;;25.17;59.75;98540.28;1763099;80;21522;-64
2022/05/21 11:28:17;;;;;;;6.80;4.27;;;;;;;25.37;59.66;98533.86;1731633;80;21527;-62
2022/05/21 11:30:45;;;;;;;6.97;4.17;;;;;;;25.31;58.86;98539.97;1714292;82;21769;-62
2022/05/21 11:38:58;;;;;;;5.67;3.95;;;;;;;25.39;58.18;98514.81;1754258;80;21590;-63
2022/05/21 11:41:59;;;;;;;7.42;4.70;;;;;;;25.54;58.25;98516.98;1754005;80;21019;-64
2022/05/21 11:45:05;;;;;;;8.85;4.42;;;;;;;25.56;58.55;98505.52;1754721;80;21915;-64
2022/05/21 11:47:35;;;;;;;7.72;5.05;;;;;;;25.85;57.99;98509.13;1750784;80;21476;-64
2022/05/21 11:50:13;;;;;;;7.75;5.78;;;;;;;25.90;57.42;98514.78;1761891;80;21491;-64
2022/05/21 11:53:00;;;;;;;10.63;7.72;;;;;;;25.73;56.77;98505.27;1755841;80;21448;-64
2022/05/21 11:55:30;;;;;;;18.45;11.25;;;;;;;25.66;57.36;98501.69;1756501;80;21668;-65
2022/05/21 11:58:01;;;;;;;19.67;15.45;;;;;;;25.83;56.84;98486.95;1758057;80;21981;-64
2022/05/21 12:00:33;;;;;;;11.43;6.85;;;;;;;25.93;56.29;98482.10;1749108;80;21529;-66
2022/05/21 12:03:10;;;;;;;29.20;13.90;;;;;;;26.06;55.08;98488.66;1757846;80;21549;-62
2022/05/21 12:05:48;;;;;;;12.47;8.13;;;;;;;26.11;54.05;98470.06;1763224;80;21520;-62
2022/05/21 12:08:30;;;;;;;82.25;48.60;;;;;;;26.11;54.05;98470.06;1754103;80;21555;-62
2022/05/21 12:11:36;;;;;;;177.53;59.45;;;;;;;26.29;54.25;98466.35;1757257;80;21495;-62
2022/05/21 12:14:25;;;;;;;18.37;8.93;;;;;;;26.49;54.11;98451.69;1755674;80;21511;-62
2022/05/21 12:16:59;;;;;;;645.15;417.12;;;;;;;26.76;52.93;98441.09;1754315;80;21392;-62
2022/05/21 12:19:55;;;;;;;183.32;87.37;;;;;;;26.87;53.16;98430.27;1762146;80;21494;-62
2022/05/21 12:22:47;;;;;;;29.87;17.07;;;;;;;27.15;53.17;98424.27;1757524;80;20990;-63
2022/05/21 12:25:46;;;;;;;29.32;19.95;;;;;;;27.18;52.29;98416.27;1755008;80;21885;-61
2022/05/21 12:28:13;;;;;;;31.25;21.05;;;;;;;27.34;50.98;98411.89;1749152;80;21408;-62
2022/05/21 12:30:40;;;;;;;263.10;169.13;;;;;;;27.30;50.63;98411.99;1759499;80;21479;-62